createdAt,value
2023-03-26T00:06:54.062Z,83
2023-03-26T00:17:00.265Z,83
2023-03-26T00:27:06.693Z,83
2023-03-26T00:37:12.985Z,82.5
2023-03-26T00:47:19.077Z,82.5
2023-03-26T00:57:25.289Z,83.5
2023-03-26T01:07:31.490Z,84
2023-03-26T01:17:37.755Z,84.5
2023-03-26T01:27:43.967Z,85
2023-03-26T01:37:50.105Z,84.5
2023-03-26T01:47:56.458Z,85
2023-03-26T01:58:02.627Z,85
2023-03-26T02:08:08.922Z,85.5
2023-03-26T02:18:14.108Z,85
2023-03-26T02:28:20.319Z,86
2023-03-26T02:38:26.520Z,87
2023-03-26T02:48:32.776Z,87
2023-03-26T02:58:38.943Z,87.5
2023-03-26T03:08:45.168Z,88
2023-03-26T03:18:51.381Z,88.5
2023-03-26T03:28:57.675Z,89
2023-03-26T03:39:03.792Z,89.5
2023-03-26T03:49:10.020Z,89
2023-03-26T03:59:16.224Z,89.5
2023-03-26T04:09:22.430Z,89.5
2023-03-26T04:19:28.644Z,90
2023-03-26T04:29:33.905Z,91.5
2023-03-26T04:39:40.202Z,91.5
2023-03-26T04:49:46.324Z,92.5
2023-03-26T04:59:52.535Z,93
2023-03-26T05:09:58.798Z,93
2023-03-26T05:20:04.934Z,93
2023-03-26T05:30:11.160Z,93
2023-03-26T05:40:17.395Z,94
2023-03-26T05:50:23.588Z,94
2023-03-26T06:00:29.795Z,93.5
2023-03-26T06:10:35.995Z,90.5
2023-03-26T06:20:42.204Z,93
2023-03-26T06:40:54.618Z,93
2023-03-26T06:50:59.962Z,93
2023-03-26T07:01:06.129Z,91.5
2023-03-26T07:11:12.324Z,92
2023-03-26T07:21:18.513Z,91.5
2023-03-26T07:31:24.709Z,93
2023-03-26T07:41:30.912Z,96.5
2023-03-26T07:51:37.157Z,97
2023-03-26T08:01:43.399Z,97.5
2023-03-26T08:11:49.548Z,93.5
2023-03-26T08:21:55.742Z,95.5
2023-03-26T08:32:01.995Z,99
2023-03-26T08:42:08.143Z,97
2023-03-26T08:52:14.362Z,99.5
2023-03-26T09:02:19.813Z,98.5
2023-03-26T09:12:25.825Z,96.5
2023-03-26T09:22:32.035Z,98
2023-03-26T09:32:38.354Z,97
2023-03-26T09:42:44.451Z,95
2023-03-26T09:52:50.661Z,97
2023-03-26T10:02:56.850Z,95
2023-03-26T10:13:03.066Z,95.5
2023-03-26T10:23:09.266Z,93
2023-03-26T10:33:15.495Z,94.5
2023-03-26T10:43:21.665Z,91
2023-03-26T10:53:27.884Z,92.5
2023-03-26T11:03:34.069Z,90.5
2023-03-26T11:13:39.390Z,91.5
2023-03-26T11:23:45.561Z,88
2023-03-26T11:33:51.914Z,93.5
2023-03-26T11:43:57.930Z,95
2023-03-26T11:54:04.200Z,89
2023-03-26T12:04:10.346Z,87.5
2023-03-26T12:14:16.553Z,87
2023-03-26T12:24:22.758Z,83.5
2023-03-26T12:34:28.958Z,82.5
2023-03-26T12:44:42.240Z,79.5
2023-03-26T12:54:41.434Z,80.5
2023-03-26T13:04:47.584Z,82
2023-03-26T13:14:53.803Z,81
2023-03-26T13:24:59.098Z,81.5
2023-03-26T13:35:05.259Z,76
2023-03-26T13:45:11.642Z,71.5
2023-03-26T13:55:17.676Z,72
2023-03-26T14:05:23.890Z,82
2023-03-26T14:15:30.179Z,82.5
2023-03-26T14:25:36.533Z,75.5
2023-03-26T14:35:42.521Z,75.5
2023-03-26T14:45:48.704Z,70
2023-03-26T14:55:54.913Z,66.5
2023-03-26T15:06:01.117Z,69
2023-03-26T15:16:07.325Z,68
2023-03-26T15:26:13.526Z,68
2023-03-26T15:36:19.742Z,67
2023-03-26T15:46:25.002Z,74
2023-03-26T15:56:31.233Z,99.5
2023-03-26T16:06:37.398Z,99.5
2023-03-26T16:16:43.614Z,99.5
2023-03-26T16:36:56.030Z,99.5
2023-03-26T16:47:02.236Z,99.5
2023-03-26T16:57:08.431Z,99.5
2023-03-26T17:07:14.642Z,99.5
2023-03-26T17:17:20.891Z,99.5
2023-03-26T17:27:27.052Z,99.5
2023-03-26T17:37:33.246Z,99.5
2023-03-26T17:47:39.459Z,99.5
2023-03-26T17:57:44.801Z,99.5
2023-03-26T18:07:50.978Z,99.5
2023-03-26T18:17:57.132Z,99.5
2023-03-26T18:28:03.310Z,99.5
2023-03-26T18:38:09.677Z,99.5
2023-03-26T18:48:16.030Z,99.5
2023-03-26T18:58:22.088Z,99.5
2023-03-26T19:18:34.513Z,99.5
2023-03-26T19:28:40.706Z,99.5
2023-03-26T19:38:47.089Z,99.5
2023-03-26T19:48:53.338Z,99.5
2023-03-26T19:58:59.488Z,99.5
2023-03-26T20:09:04.862Z,99.5
2023-03-26T20:19:11.071Z,99.5
2023-03-26T20:29:17.293Z,99.5
2023-03-26T20:39:23.477Z,99.5
2023-03-26T20:49:29.637Z,99.5
2023-03-26T20:59:35.779Z,99.5
2023-03-26T21:09:42.097Z,99.5
2023-03-26T21:19:48.227Z,99.5
2023-03-26T21:29:54.394Z,99.5
2023-03-26T21:40:00.637Z,99.5
2023-03-26T21:50:06.815Z,99.5
2023-03-26T22:00:13.248Z,99.5
2023-03-26T22:10:18.495Z,99.5
2023-03-26T22:20:24.697Z,98.5
2023-03-26T22:30:31.007Z,95.5
2023-03-26T22:40:37.111Z,95
2023-03-26T22:50:43.349Z,95.5
2023-03-26T23:00:49.523Z,96.5
2023-03-26T23:10:55.747Z,96
2023-03-26T23:21:01.967Z,97.5
2023-03-26T23:31:08.165Z,96
2023-03-26T23:41:14.404Z,98.5
2023-03-26T23:51:20.607Z,98.5
